Time;durP1;ratioP1;P1;durP2;ratioP2;P2;SDS_P1;SDS_P2;PMS_P1;PMS_P2;Temp;Humidity;BMP_temperature;BMP_pressure;BME280_temperature;BME280_humidity;BME280_pressure;Samples;Min_cycle;Max_cycle;Signal;HPM_P1;HPM_P2
2021/06/18 00:00:07;;;;;;;2.13;1.33;;;20.10;98.00;;;;;;5070955;28;20456;-74
2021/06/18 00:02:37;;;;;;;1.30;1.20;;;20.20;98.00;;;;;;5069795;28;21125;-75
2021/06/18 00:05:05;;;;;;;1.57;1.50;;;20.10;98.00;;;;;;5069617;28;20476;-74
2021/06/18 00:07:34;;;;;;;1.90;1.60;;;20.00;98.00;;;;;;5071008;28;20549;-74
2021/06/18 00:10:01;;;;;;;1.30;1.30;;;20.00;98.00;;;;;;5069954;28;20484;-74
2021/06/18 00:12:28;;;;;;;2.33;1.70;;;20.00;98.00;;;;;;5070740;28;20485;-74
2021/06/18 00:14:59;;;;;;;2.10;1.33;;;20.00;98.00;;;;;;5068544;28;20485;-74
2021/06/18 00:17:26;;;;;;;1.97;1.50;;;19.90;98.00;;;;;;5070954;28;20457;-74
2021/06/18 00:19:54;;;;;;;1.50;1.40;;;19.90;98.00;;;;;;5068059;28;20997;-74
2021/06/18 00:22:21;;;;;;;1.97;1.30;;;19.90;98.00;;;;;;5071036;28;20498;-75
2021/06/18 00:24:49;;;;;;;1.37;1.23;;;19.70;98.00;;;;;;5069980;28;20456;-74
2021/06/18 00:27:16;;;;;;;1.77;1.10;;;19.70;98.00;;;;;;5074444;28;20513;-74
2021/06/18 00:29:43;;;;;;;1.40;1.20;;;19.80;98.00;;;;;;5070034;28;20512;-74
2021/06/18 00:32:10;;;;;;;1.50;1.30;;;19.90;98.00;;;;;;5074505;28;20993;-74
2021/06/18 00:34:37;;;;;;;1.90;1.53;;;19.80;98.00;;;;;;5071482;28;20492;-74
2021/06/18 00:37:05;;;;;;;1.50;1.37;;;19.80;98.00;;;;;;5073082;28;20456;-74
2021/06/18 00:39:32;;;;;;;1.57;1.17;;;19.70;98.00;;;;;;5071482;28;20484;-74
2021/06/18 00:41:59;;;;;;;1.30;1.27;;;19.50;98.00;;;;;;5074187;28;20507;-74
2021/06/18 00:44:26;;;;;;;1.70;1.40;;;19.40;98.00;;;;;;5071688;28;20501;-74
2021/06/18 00:46:54;;;;;;;1.67;1.50;;;19.40;98.00;;;;;;5073764;28;20511;-74
2021/06/18 00:49:22;;;;;;;3.53;1.93;;;19.50;98.00;;;;;;5071493;28;20484;-74
2021/06/18 00:51:50;;;;;;;1.63;1.57;;;19.40;98.00;;;;;;5073970;28;20457;-74
2021/06/18 00:54:28;;;;;;;1.40;1.20;;;19.30;98.00;;;;;;5071220;28;20547;-74
2021/06/18 00:56:55;;;;;;;1.50;1.30;;;19.20;98.00;;;;;;5073702;28;20510;-74
2021/06/18 00:59:23;;;;;;;1.50;1.30;;;19.20;98.00;;;;;;5071141;28;20468;-74
2021/06/18 01:01:50;;;;;;;1.90;1.53;;;19.40;98.00;;;;;;5073551;28;20493;-75
2021/06/18 01:04:18;;;;;;;1.80;1.40;;;19.50;98.00;;;;;;5070781;28;20484;-74
2021/06/18 01:06:49;;;;;;;1.80;1.53;;;19.60;98.00;;;;;;5073409;28;20938;-74
2021/06/18 01:09:20;;;;;;;1.50;1.50;;;19.50;98.00;;;;;;5071141;28;21233;-75
2021/06/18 01:11:58;;;;;;;1.53;1.27;;;19.40;98.00;;;;;;5073410;28;20465;-74
2021/06/18 01:14:31;;;;;;;2.37;1.60;;;19.50;98.00;;;;;;5070245;28;20463;-75
2021/06/18 01:17:04;;;;;;;1.50;1.40;;;19.50;98.00;;;;;;5073347;28;20989;-74
2021/06/18 01:19:42;;;;;;;2.27;1.40;;;19.50;98.00;;;;;;5071050;28;20503;-74
2021/06/18 01:22:14;;;;;;;1.50;1.47;;;19.50;98.00;;;;;;5073609;28;20941;-74
2021/06/18 01:24:56;;;;;;;1.93;1.60;;;19.30;98.00;;;;;;5070603;28;20457;-75
2021/06/18 01:27:45;;;;;;;2.00;1.33;;;19.00;98.00;;;;;;5071986;28;20461;-75
2021/06/18 01:30:16;;;;;;;1.30;1.10;;;18.80;98.00;;;;;;5073073;28;20485;-74
2021/06/18 01:32:47;;;;;;;2.10;1.37;;;18.70;98.00;;;;;;5072087;28;20457;-75
2021/06/18 01:35:16;;;;;;;2.90;1.87;;;18.60;98.00;;;;;;5072894;28;20979;-74
2021/06/18 01:37:48;;;;;;;1.80;1.50;;;18.80;98.00;;;;;;5071592;28;20449;-75
2021/06/18 01:40:18;;;;;;;1.47;1.30;;;18.80;98.00;;;;;;5072961;28;20537;-74
2021/06/18 01:42:49;;;;;;;1.83;1.50;;;18.60;98.00;;;;;;5071427;28;20942;-74
2021/06/18 01:45:19;;;;;;;1.60;1.30;;;18.70;98.00;;;;;;5072636;28;20453;-74
2021/06/18 01:47:49;;;;;;;2.17;1.40;;;18.60;98.00;;;;;;5071373;28;20530;-74
2021/06/18 01:50:18;;;;;;;1.70;1.40;;;18.60;98.00;;;;;;5072447;28;20561;-75
2021/06/18 01:52:50;;;;;;;2.33;1.43;;;18.50;98.00;;;;;;5070747;28;20460;-74
2021/06/18 01:55:19;;;;;;;1.40;1.20;;;18.40;98.00;;;;;;5072731;28;20460;-74
2021/06/18 01:57:49;;;;;;;1.70;1.53;;;18.40;98.00;;;;;;5071506;28;20511;-74
2021/06/18 02:00:20;;;;;;;2.27;1.60;;;18.40;98.00;;;;;;5072080;28;20457;-74
2021/06/18 02:02:49;;;;;;;1.90;1.33;;;18.40;98.00;;;;;;5070870;28;20453;-75
2021/06/18 02:05:17;;;;;;;2.60;1.73;;;18.50;98.00;;;;;;5072696;28;20514;-74
2021/06/18 02:07:48;;;;;;;3.73;1.33;;;18.40;98.00;;;;;;5071918;28;20453;-76
2021/06/18 02:10:15;;;;;;;2.37;1.90;;;18.40;98.00;;;;;;5072416;28;20491;-74
2021/06/18 02:12:43;;;;;;;1.70;1.60;;;18.40;98.00;;;;;;5072449;28;20476;-75
2021/06/18 02:15:11;;;;;;;1.70;1.27;;;18.40;98.00;;;;;;5070490;28;20468;-74
2021/06/18 02:17:42;;;;;;;3.20;1.57;;;18.40;98.00;;;;;;5072311;28;20461;-74
2021/06/18 02:20:10;;;;;;;1.50;1.30;;;18.30;98.00;;;;;;5069852;28;20453;-74
2021/06/18 02:22:39;;;;;;;1.57;1.40;;;18.20;98.00;;;;;;5072106;28;20571;-74
2021/06/18 02:25:09;;;;;;;1.40;1.20;;;18.10;98.00;;;;;;5069783;28;20449;-74
2021/06/18 02:27:37;;;;;;;1.60;1.20;;;18.00;98.00;;;;;;5071704;28;20496;-75
2021/06/18 02:30:06;;;;;;;2.80;1.80;;;18.00;98.00;;;;;;5069354;28;20480;-74
2021/06/18 02:32:35;;;;;;;1.50;1.30;;;18.00;98.00;;;;;;5071944;28;20875;-74
2021/06/18 02:35:04;;;;;;;2.00;1.40;;;18.00;98.00;;;;;;5069361;28;20981;-73
2021/06/18 02:37:36;;;;;;;1.63;1.40;;;18.00;98.00;;;;;;5071825;28;20511;-74
2021/06/18 02:40:04;;;;;;;1.30;1.10;;;18.00;98.00;;;;;;5068572;28;20477;-73
2021/06/18 02:42:31;;;;;;;2.90;1.37;;;17.90;98.00;;;;;;5071648;28;20519;-74
2021/06/18 02:44:58;;;;;;;1.60;1.27;;;17.80;98.00;;;;;;5069104;28;20552;-74
2021/06/18 02:47:33;;;;;;;1.87;1.37;;;17.80;98.00;;;;;;5071283;28;20457;-74
2021/06/18 02:50:08;;;;;;;1.80;1.30;;;17.80;98.00;;;;;;5067964;28;20571;-74
2021/06/18 02:52:42;;;;;;;2.37;1.63;;;17.80;98.00;;;;;;5071627;28;20873;-75
2021/06/18 02:55:14;;;;;;;1.30;1.20;;;17.80;98.00;;;;;;5068445;28;20463;-74
2021/06/18 02:57:50;;;;;;;2.07;1.40;;;17.90;98.00;;;;;;5071680;28;20456;-74
2021/06/18 03:00:19;;;;;;;1.87;1.40;;;17.90;98.00;;;;;;5070234;28;20527;-74
2021/06/18 03:02:50;;;;;;;2.70;1.33;;;18.00;98.00;;;;;;5071461;28;20457;-75
2021/06/18 03:05:22;;;;;;;1.40;1.40;;;18.10;98.00;;;;;;5070560;28;21092;-73
2021/06/18 03:07:55;;;;;;;4.37;1.57;;;18.20;98.00;;;;;;5071761;28;20496;-74
2021/06/18 03:10:25;;;;;;;1.73;1.40;;;18.00;98.00;;;;;;5071681;28;20480;-75
2021/06/18 03:12:59;;;;;;;1.90;1.37;;;17.90;98.00;;;;;;5070926;28;20852;-74
2021/06/18 03:15:27;;;;;;;2.97;2.00;;;17.90;98.00;;;;;;5071469;28;20492;-74
2021/06/18 03:17:56;;;;;;;2.40;1.87;;;17.90;98.00;;;;;;5070011;28;20459;-76
2021/06/18 03:20:25;;;;;;;3.10;1.83;;;18.00;98.00;;;;;;5070897;28;20552;-74
2021/06/18 03:22:56;;;;;;;2.13;1.87;;;17.80;98.00;;;;;;5071272;28;20795;-74
2021/06/18 03:25:24;;;;;;;1.97;1.77;;;17.70;98.00;;;;;;5071241;28;20488;-74
2021/06/18 03:27:53;;;;;;;1.63;1.30;;;17.70;98.00;;;;;;5071124;28;20512;-74
2021/06/18 03:30:21;;;;;;;2.10;1.33;;;17.50;98.00;;;;;;5070349;28;20481;-76
2021/06/18 03:32:50;;;;;;;2.20;1.50;;;17.50;98.00;;;;;;5071102;28;20488;-74
2021/06/18 03:35:19;;;;;;;1.73;1.47;;;17.60;98.00;;;;;;5068826;28;20927;-74
2021/06/18 03:37:50;;;;;;;2.20;1.50;;;17.80;98.00;;;;;;5070983;28;20445;-75
2021/06/18 03:40:18;;;;;;;3.10;1.50;;;17.90;98.00;;;;;;5068668;28;20449;-78
2021/06/18 03:42:47;;;;;;;1.50;1.40;;;18.00;98.00;;;;;;5069847;28;20461;-78
2021/06/18 03:45:14;;;;;;;2.13;1.50;;;18.20;98.00;;;;;;5068625;28;20485;-75
2021/06/18 03:47:42;;;;;;;1.50;1.17;;;18.20;98.00;;;;;;5071024;28;20453;-77
2021/06/18 03:50:10;;;;;;;1.67;1.40;;;18.20;98.00;;;;;;5068547;28;20568;-77
2021/06/18 03:52:37;;;;;;;1.60;1.30;;;18.10;98.00;;;;;;5071073;28;20506;-78
2021/06/18 03:55:16;;;;;;;2.13;1.60;;;17.90;98.00;;;;;;5068543;28;20536;-78
2021/06/18 03:57:45;;;;;;;1.70;1.33;;;17.80;98.00;;;;;;5070370;28;20499;-77
2021/06/18 04:00:16;;;;;;;1.83;1.50;;;17.70;98.00;;;;;;5070062;28;20453;-76
2021/06/18 04:02:44;;;;;;;2.00;1.80;;;17.80;98.00;;;;;;5074873;28;20552;-76
2021/06/18 04:05:15;;;;;;;1.80;1.30;;;17.60;98.00;;;;;;5072457;28;20506;-77
2021/06/18 04:07:47;;;;;;;1.90;1.60;;;17.40;98.00;;;;;;5074912;28;20808;-76
2021/06/18 04:10:17;;;;;;;1.43;1.30;;;17.40;98.00;;;;;;5072248;28;20484;-76
2021/06/18 04:12:45;;;;;;;1.50;1.37;;;17.50;98.00;;;;;;5074614;28;20453;-78
2021/06/18 04:15:13;;;;;;;2.00;1.70;;;17.50;98.00;;;;;;5072119;28;20448;-78
2021/06/18 04:17:41;;;;;;;2.07;1.40;;;17.60;98.00;;;;;;5074449;28;20461;-79
2021/06/18 04:20:09;;;;;;;1.67;1.37;;;17.80;98.00;;;;;;5070506;28;20634;-79
2021/06/18 04:22:36;;;;;;;2.00;1.60;;;18.00;98.00;;;;;;5074465;28;20488;-78
2021/06/18 04:25:04;;;;;;;2.03;1.70;;;18.30;98.00;;;;;;5071422;28;20460;-77
2021/06/18 04:27:33;;;;;;;1.50;1.40;;;18.50;98.00;;;;;;5074107;28;20468;-76
2021/06/18 04:30:00;;;;;;;2.20;1.50;;;18.50;98.00;;;;;;5071471;28;20488;-76
2021/06/18 04:32:27;;;;;;;1.80;1.53;;;18.30;98.00;;;;;;5073265;28;20453;-77
2021/06/18 04:34:54;;;;;;;1.97;1.47;;;18.40;98.00;;;;;;5071656;28;20967;-78
2021/06/18 04:37:21;;;;;;;2.53;1.77;;;18.40;98.00;;;;;;5074082;28;20452;-77
2021/06/18 04:39:48;;;;;;;2.33;1.73;;;18.30;98.00;;;;;;5071379;28;20540;-78
2021/06/18 04:42:15;;;;;;;1.97;1.33;;;18.20;98.00;;;;;;5073857;28;20457;-77
2021/06/18 04:44:44;;;;;;;2.50;1.60;;;18.40;98.00;;;;;;5070330;28;20510;-77
2021/06/18 04:47:11;;;;;;;3.50;2.30;;;18.30;98.00;;;;;;5073838;28;20486;-77
2021/06/18 04:49:38;;;;;;;1.93;1.37;;;18.30;98.00;;;;;;5071009;28;20461;-76
2021/06/18 04:52:07;;;;;;;3.10;1.80;;;18.30;98.00;;;;;;5074043;28;20586;-78
2021/06/18 04:54:34;;;;;;;4.60;2.43;;;18.50;98.00;;;;;;5071553;28;20480;-77
2021/06/18 04:57:01;;;;;;;1.40;1.20;;;18.80;98.00;;;;;;5073867;28;20461;-77
2021/06/18 04:59:28;;;;;;;2.43;1.80;;;19.00;98.00;;;;;;5070827;28;20510;-77
2021/06/18 05:01:57;;;;;;;1.70;1.70;;;18.90;98.00;;;;;;5073722;28;20488;-78
2021/06/18 05:04:23;;;;;;;1.63;1.50;;;18.90;98.00;;;;;;5070841;28;20518;-78
2021/06/18 05:06:50;;;;;;;2.73;2.00;;;19.00;98.00;;;;;;5073567;28;20488;-77
2021/06/18 05:09:17;;;;;;;3.07;1.70;;;19.10;98.00;;;;;;5070732;28;20473;-76
2021/06/18 05:11:44;;;;;;;3.03;1.77;;;19.30;98.00;;;;;;5073171;28;20505;-76
2021/06/18 05:14:11;;;;;;;2.50;1.60;;;19.30;98.00;;;;;;5070943;28;20461;-78
2021/06/18 05:16:39;;;;;;;3.17;1.87;;;19.30;98.00;;;;;;5073579;28;20526;-77
2021/06/18 05:19:08;;;;;;;1.50;1.30;;;19.20;98.00;;;;;;5070729;28;20483;-77
2021/06/18 05:21:34;;;;;;;2.47;2.00;;;19.20;98.00;;;;;;5073271;28;20935;-76
2021/06/18 05:24:02;;;;;;;3.30;2.00;;;19.20;98.00;;;;;;5070352;28;20854;-77
2021/06/18 05:26:32;;;;;;;1.73;1.20;;;19.30;98.00;;;;;;5073299;28;20617;-77
2021/06/18 05:28:59;;;;;;;1.83;1.73;;;19.40;98.00;;;;;;5070549;28;20479;-76
2021/06/18 05:31:26;;;;;;;2.43;1.67;;;19.40;98.00;;;;;;5073219;28;20550;-78
2021/06/18 05:33:53;;;;;;;1.67;1.47;;;19.50;98.00;;;;;;5070183;28;20526;-77
2021/06/18 05:36:22;;;;;;;1.70;1.43;;;19.70;98.00;;;;;;5073258;28;20510;-77
2021/06/18 05:38:49;;;;;;;2.30;1.70;;;19.80;98.00;;;;;;5070688;28;20456;-77
2021/06/18 05:41:16;;;;;;;2.40;1.63;;;19.90;98.00;;;;;;5073134;28;20457;-76
2021/06/18 05:43:43;;;;;;;2.30;1.80;;;20.00;98.00;;;;;;5070246;28;20480;-77
2021/06/18 05:46:10;;;;;;;1.40;1.30;;;20.00;98.00;;;;;;5073074;28;20491;-76
2021/06/18 05:48:37;;;;;;;2.63;1.80;;;20.10;98.00;;;;;;5070225;28;20507;-77
2021/06/18 05:51:04;;;;;;;2.50;1.40;;;20.20;98.00;;;;;;5072954;28;20571;-76
2021/06/18 05:53:32;;;;;;;1.50;1.40;;;20.30;98.00;;;;;;5069565;28;20880;-78
2021/06/18 05:55:59;;;;;;;2.20;1.40;;;20.40;98.00;;;;;;5072694;28;20538;-77
2021/06/18 05:58:26;;;;;;;1.70;1.50;;;20.60;98.00;;;;;;5070127;28;20486;-78
2021/06/18 06:00:53;;;;;;;2.20;1.80;;;20.60;98.00;;;;;;5072710;28;21156;-77
2021/06/18 06:03:22;;;;;;;1.60;1.43;;;20.70;98.00;;;;;;5069907;28;20460;-72
2021/06/18 06:05:49;;;;;;;1.97;1.63;;;20.90;98.00;;;;;;5071263;28;20944;-72
2021/06/18 06:08:16;;;;;;;2.53;1.40;;;21.00;98.00;;;;;;5069771;28;20493;-74
2021/06/18 06:10:48;;;;;;;4.40;2.07;;;21.10;98.00;;;;;;5072262;28;20567;-72
2021/06/18 06:13:16;;;;;;;1.93;1.50;;;21.10;98.00;;;;;;5069831;28;20460;-75
2021/06/18 06:15:43;;;;;;;2.17;1.67;;;21.20;98.00;;;;;;5072395;28;20460;-72
2021/06/18 06:18:10;;;;;;;1.77;1.47;;;21.30;98.00;;;;;;5071515;28;20515;-73
2021/06/18 06:20:37;;;;;;;2.07;1.70;;;21.40;98.00;;;;;;5070898;28;20459;-74
2021/06/18 06:23:03;;;;;;;2.80;1.80;;;21.50;98.00;;;;;;5071462;28;20530;-75
2021/06/18 06:25:30;;;;;;;1.30;1.20;;;21.70;98.00;;;;;;5069793;28;20963;-73
2021/06/18 06:27:59;;;;;;;2.60;2.00;;;21.90;98.00;;;;;;5072192;28;20514;-74
2021/06/18 06:30:26;;;;;;;1.57;1.50;;;22.20;98.00;;;;;;5069363;28;20456;-74
2021/06/18 06:32:53;;;;;;;2.03;1.63;;;22.30;98.00;;;;;;5072067;28;20530;-73
2021/06/18 06:35:21;;;;;;;2.10;1.67;;;22.60;98.00;;;;;;5069299;28;20452;-73
2021/06/18 06:37:48;;;;;;;2.63;1.60;;;22.80;98.00;;;;;;5071972;28;20464;-74
2021/06/18 06:40:16;;;;;;;3.17;1.80;;;23.00;98.00;;;;;;5069489;28;20457;-73
2021/06/18 06:42:43;;;;;;;2.53;1.80;;;23.20;98.00;;;;;;5071448;28;20518;-73
2021/06/18 06:45:12;;;;;;;2.03;1.80;;;23.40;98.00;;;;;;5068369;28;20485;-76
2021/06/18 06:47:39;;;;;;;2.43;1.77;;;23.40;98.00;;;;;;5070960;28;20461;-74
2021/06/18 06:50:09;;;;;;;1.83;1.60;;;23.50;98.00;;;;;;5068145;28;20461;-76
2021/06/18 06:52:36;;;;;;;2.50;1.80;;;23.70;98.00;;;;;;5070830;28;20484;-74
2021/06/18 06:55:04;;;;;;;2.90;1.70;;;23.90;98.00;;;;;;5068709;28;20502;-73
2021/06/18 06:57:31;;;;;;;2.40;2.13;;;24.00;98.00;;;;;;5071540;28;20453;-73
2021/06/18 06:59:58;;;;;;;3.27;2.20;;;24.10;98.00;;;;;;5067024;28;20485;-75
2021/06/18 07:02:27;;;;;;;2.43;1.80;;;24.30;97.90;;;;;;5071371;28;20510;-74
2021/06/18 07:04:54;;;;;;;2.53;1.93;;;24.50;93.40;;;;;;5069142;28;20563;-74
2021/06/18 07:07:21;;;;;;;2.30;1.90;;;24.50;93.00;;;;;;5069912;28;20488;-75
2021/06/18 07:09:48;;;;;;;3.43;1.97;;;24.50;95.20;;;;;;5068529;28;20537;-74
2021/06/18 07:12:15;;;;;;;2.17;1.87;;;24.60;94.80;;;;;;5071118;28;20520;-77
2021/06/18 07:14:42;;;;;;;1.83;1.80;;;24.70;94.80;;;;;;5068351;28;20839;-73
2021/06/18 07:17:10;;;;;;;1.80;1.80;;;24.70;93.30;;;;;;5071289;28;20486;-71
2021/06/18 07:19:39;;;;;;;2.47;2.03;;;24.80;93.10;;;;;;5068011;28;20457;-75
2021/06/18 07:22:07;;;;;;;2.90;2.00;;;24.80;93.50;;;;;;5070952;28;20464;-76
2021/06/18 07:24:34;;;;;;;1.70;1.53;;;24.80;93.00;;;;;;5067768;28;20506;-76
2021/06/18 07:27:01;;;;;;;2.03;1.80;;;24.90;93.40;;;;;;5070632;28;20464;-75
2021/06/18 07:29:28;;;;;;;3.67;1.87;;;24.90;93.50;;;;;;5067875;28;20456;-76
2021/06/18 07:31:57;;;;;;;2.33;1.80;;;25.00;93.50;;;;;;5069353;28;20559;-77
2021/06/18 07:34:24;;;;;;;3.73;2.07;;;25.10;92.90;;;;;;5070185;28;20502;-75
2021/06/18 07:36:53;;;;;;;2.70;1.50;;;25.30;92.80;;;;;;5074764;28;20525;-73
2021/06/18 07:39:20;;;;;;;2.23;1.70;;;25.30;92.90;;;;;;5070931;28;20468;-74
2021/06/18 07:41:47;;;;;;;2.03;1.90;;;25.30;91.50;;;;;;5072807;28;20479;-76
2021/06/18 07:44:14;;;;;;;1.83;1.80;;;25.30;92.10;;;;;;5069702;28;20506;-74
2021/06/18 07:46:41;;;;;;;2.63;2.00;;;25.40;92.30;;;;;;5074603;28;21234;-73
2021/06/18 07:49:08;;;;;;;2.27;2.03;;;25.40;92.30;;;;;;5071825;28;20869;-74
2021/06/18 07:51:34;;;;;;;2.20;1.70;;;25.50;92.00;;;;;;5074288;28;20520;-75
2021/06/18 07:54:03;;;;;;;1.80;1.53;;;25.60;90.70;;;;;;5071532;28;20518;-74
2021/06/18 07:56:33;;;;;;;2.80;1.70;;;25.70;89.00;;;;;;5074382;28;20544;-75
2021/06/18 07:59:00;;;;;;;1.77;1.70;;;25.80;90.90;;;;;;5071621;28;20456;-75
2021/06/18 08:01:28;;;;;;;1.70;1.60;;;25.80;90.80;;;;;;5074159;28;20511;-74
2021/06/18 08:03:55;;;;;;;3.53;2.00;;;25.90;90.40;;;;;;5071412;28;20460;-77
2021/06/18 08:06:22;;;;;;;2.13;1.50;;;26.00;90.30;;;;;;5074716;28;20457;-77
2021/06/18 08:08:51;;;;;;;2.10;1.70;;;26.20;89.90;;;;;;5071264;28;20488;-78
2021/06/18 08:11:19;;;;;;;2.03;1.57;;;26.30;89.50;;;;;;5074190;28;20492;-77
2021/06/18 08:13:46;;;;;;;2.10;1.80;;;26.40;88.60;;;;;;5071655;28;21089;-78
2021/06/18 08:16:13;;;;;;;3.07;2.00;;;26.40;88.60;;;;;;5074338;28;21205;-77
2021/06/18 08:18:40;;;;;;;2.10;1.73;;;26.40;89.00;;;;;;5069950;28;20511;-76
2021/06/18 08:21:09;;;;;;;1.80;1.70;;;26.40;87.80;;;;;;5074066;28;20480;-76
2021/06/18 08:23:37;;;;;;;3.00;2.17;;;26.40;88.00;;;;;;5071182;28;20877;-76
2021/06/18 08:26:04;;;;;;;3.67;2.20;;;26.40;87.60;;;;;;5073975;28;20457;-74
2021/06/18 08:28:33;;;;;;;2.60;2.20;;;26.50;87.70;;;;;;5070780;28;20484;-74
2021/06/18 08:31:03;;;;;;;2.80;1.90;;;26.60;89.20;;;;;;5072994;28;20484;-72
2021/06/18 08:33:32;;;;;;;2.20;1.70;;;26.70;89.00;;;;;;5071662;28;20453;-75
2021/06/18 08:35:59;;;;;;;2.63;2.03;;;26.80;88.50;;;;;;5073590;28;20445;-74
2021/06/18 08:38:26;;;;;;;2.80;2.40;;;26.80;89.50;;;;;;5071705;28;20492;-74
2021/06/18 08:40:54;;;;;;;2.87;2.40;;;27.00;89.50;;;;;;5072766;28;21015;-74
2021/06/18 08:43:21;;;;;;;2.50;1.83;;;27.00;89.10;;;;;;5073270;28;20497;-74
2021/06/18 08:45:49;;;;;;;2.60;1.73;;;27.20;86.20;;;;;;5070336;28;20465;-73
2021/06/18 08:48:16;;;;;;;2.30;2.00;;;27.30;88.20;;;;;;5072825;28;20456;-73
2021/06/18 08:50:45;;;;;;;2.40;2.00;;;27.40;86.60;;;;;;5070552;28;20514;-73
2021/06/18 08:53:13;;;;;;;3.13;2.30;;;27.50;85.50;;;;;;5072630;28;20512;-74
2021/06/18 08:55:41;;;;;;;1.90;1.60;;;27.50;87.00;;;;;;5070589;28;20874;-73
2021/06/18 08:58:08;;;;;;;2.10;1.73;;;27.60;87.80;;;;;;5072519;28;20505;-73
2021/06/18 09:00:36;;;;;;;3.40;2.17;;;27.70;88.50;;;;;;5069946;28;20823;-73
2021/06/18 09:03:36;;;;;;;2.23;1.80;;;27.80;87.90;;;;;;5072628;28;20460;-73
2021/06/18 09:06:03;;;;;;;2.93;1.73;;;27.90;86.10;;;;;;5072363;28;20457;-73
2021/06/18 09:08:30;;;;;;;4.63;2.40;;;28.00;88.00;;;;;;5069716;28;20471;-73
2021/06/18 09:10:57;;;;;;;3.00;2.27;;;28.20;85.20;;;;;;5071991;28;20522;-73
2021/06/18 09:13:30;;;;;;;2.23;1.70;;;28.30;84.30;;;;;;5070993;28;20925;-74
2021/06/18 09:15:59;;;;;;;2.80;2.30;;;28.50;85.20;;;;;;5072258;28;20453;-73
2021/06/18 09:18:35;;;;;;;2.20;1.83;;;28.60;85.60;;;;;;5071703;28;20453;-71
2021/06/18 09:21:21;;;;;;;2.53;2.07;;;28.70;85.20;;;;;;5072024;28;20452;-71
2021/06/18 09:23:50;;;;;;;3.03;1.80;;;28.80;84.60;;;;;;5069981;28;20747;-73
2021/06/18 09:26:23;;;;;;;2.07;1.63;;;29.00;84.40;;;;;;5071673;28;20809;-73
2021/06/18 09:29:02;;;;;;;3.43;1.90;;;29.10;84.20;;;;;;5069179;28;20498;-73
2021/06/18 09:31:31;;;;;;;2.70;2.00;;;29.20;81.50;;;;;;5071758;28;20965;-73
2021/06/18 09:34:00;;;;;;;1.77;1.60;;;29.30;82.20;;;;;;5069663;28;20467;-71
2021/06/18 09:36:27;;;;;;;3.50;2.37;;;29.50;83.20;;;;;;5071811;28;20489;-72
2021/06/18 09:38:56;;;;;;;2.60;2.27;;;29.80;81.50;;;;;;5069317;28;20503;-72
2021/06/18 09:41:32;;;;;;;3.03;2.23;;;29.80;81.30;;;;;;5071660;28;20452;-72
2021/06/18 09:43:59;;;;;;;3.80;2.30;;;29.90;79.20;;;;;;5069349;28;20468;-74
2021/06/18 09:46:47;;;;;;;2.33;1.90;;;30.00;78.90;;;;;;5072132;28;20527;-73
2021/06/18 09:49:35;;;;;;;3.63;2.47;;;30.20;75.30;;;;;;5069689;28;21035;-73
2021/06/18 09:52:04;;;;;;;2.37;1.77;;;30.30;77.70;;;;;;5071179;28;20488;-73
2021/06/18 09:54:34;;;;;;;2.80;2.07;;;30.30;78.50;;;;;;5070042;28;20803;-73
2021/06/18 09:57:06;;;;;;;2.83;2.30;;;30.50;77.20;;;;;;5071362;28;20449;-73
2021/06/18 09:59:45;;;;;;;2.40;1.93;;;30.60;78.40;;;;;;5069794;28;21015;-73
2021/06/18 10:02:12;;;;;;;3.77;2.40;;;30.80;77.50;;;;;;5071968;28;20445;-73
2021/06/18 10:04:41;;;;;;;1.83;1.73;;;30.90;78.20;;;;;;5069634;28;20770;-73
2021/06/18 10:07:09;;;;;;;3.00;2.13;;;31.00;78.40;;;;;;5071753;28;20825;-74
2021/06/18 10:09:37;;;;;;;2.67;2.17;;;31.10;77.20;;;;;;5069715;28;20456;-74
2021/06/18 10:12:06;;;;;;;3.13;2.40;;;31.10;77.10;;;;;;5071540;28;20526;-73
2021/06/18 10:14:33;;;;;;;2.77;2.33;;;31.20;77.60;;;;;;5069627;28;20453;-74
2021/06/18 10:17:00;;;;;;;2.90;2.10;;;31.30;74.90;;;;;;5071693;28;20510;-73
2021/06/18 10:19:30;;;;;;;2.87;2.27;;;31.30;73.30;;;;;;5069587;28;20463;-73
2021/06/18 10:22:03;;;;;;;2.90;2.10;;;31.40;75.90;;;;;;5071567;28;20502;-74
2021/06/18 10:24:37;;;;;;;2.77;1.90;;;31.60;77.40;;;;;;5069491;28;20477;-75
2021/06/18 10:27:07;;;;;;;3.73;2.37;;;31.70;75.70;;;;;;5071221;28;20507;-75
2021/06/18 10:29:37;;;;;;;3.10;2.27;;;31.80;73.30;;;;;;5069860;28;20472;-75
2021/06/18 10:32:45;;;;;;;2.67;2.30;;;31.80;74.30;;;;;;5071431;28;20489;-74
2021/06/18 10:35:46;;;;;;;3.07;2.30;;;32.00;75.50;;;;;;5064696;28;20484;-74
2021/06/18 10:38:25;;;;;;;3.17;1.90;;;32.20;74.20;;;;;;5071243;28;20872;-74
2021/06/18 10:40:52;;;;;;;2.63;2.00;;;32.40;75.50;;;;;;5069399;28;20449;-74
2021/06/18 10:43:20;;;;;;;3.40;2.60;;;32.50;73.70;;;;;;5071144;28;20498;-73
2021/06/18 10:46:09;;;;;;;2.50;1.97;;;32.50;72.50;;;;;;5069068;28;20456;-74
2021/06/18 10:49:02;;;;;;;2.47;2.27;;;32.70;72.30;;;;;;5066716;28;20479;-74
2021/06/18 10:51:47;;;;;;;2.63;2.07;;;32.80;72.40;;;;;;5070991;28;20492;-73
2021/06/18 10:54:28;;;;;;;3.92;2.50;;;32.90;70.20;;;;;;5067954;28;20461;-73
2021/06/18 10:57:04;;;;;;;2.77;1.93;;;32.90;69.20;;;;;;5070913;28;20692;-73
2021/06/18 10:59:34;;;;;;;3.33;2.47;;;32.80;70.10;;;;;;5069072;28;21012;-73
2021/06/18 11:02:02;;;;;;;3.00;2.20;;;32.90;70.70;;;;;;5070946;28;20449;-73
2021/06/18 11:04:44;;;;;;;2.30;1.77;;;33.00;69.50;;;;;;5068790;28;21011;-73
2021/06/18 11:07:25;;;;;;;2.27;2.13;;;33.10;69.60;;;;;;5071052;28;20534;-73
2021/06/18 11:09:54;;;;;;;2.87;2.13;;;33.10;72.50;;;;;;5068402;28;20452;-73
2021/06/18 11:12:53;;;;;;;2.60;2.03;;;33.20;66.20;;;;;;5070720;28;20492;-72
2021/06/18 11:15:41;;;;;;;2.50;2.00;;;33.30;65.10;;;;;;5068468;28;20995;-73
2021/06/18 11:18:17;;;;;;;2.10;1.90;;;33.40;64.40;;;;;;5070604;28;20464;-73
2021/06/18 11:20:54;;;;;;;2.33;2.20;;;33.50;64.10;;;;;;5051358;28;20486;-72
2021/06/18 11:23:25;;;;;;;2.20;1.93;;;33.80;63.30;;;;;;5070433;28;20491;-73
2021/06/18 11:25:55;;;;;;;2.87;1.97;;;34.00;63.10;;;;;;5068699;28;20460;-73
2021/06/18 11:28:34;;;;;;;3.03;2.00;;;34.00;60.30;;;;;;5070500;28;20883;-72
2021/06/18 11:31:05;;;;;;;3.83;2.40;;;34.10;63.00;;;;;;5068317;28;20452;-73
2021/06/18 11:33:52;;;;;;;3.13;2.30;;;34.20;62.60;;;;;;5070513;28;20480;-73
2021/06/18 11:36:44;;;;;;;1.90;1.80;;;34.30;61.50;;;;;;5070237;28;20467;-74
2021/06/18 11:39:17;;;;;;;1.60;1.60;;;34.30;60.80;;;;;;5060038;28;20457;-74
2021/06/18 11:41:49;;;;;;;3.00;2.10;;;34.50;60.00;;;;;;5070400;28;20457;-74
2021/06/18 11:44:21;;;;;;;2.70;1.80;;;34.60;61.00;;;;;;5068126;28;20463;-73
2021/06/18 11:46:53;;;;;;;1.90;1.70;;;34.60;58.80;;;;;;5070620;28;20460;-73
2021/06/18 11:49:23;;;;;;;3.00;2.40;;;34.70;57.30;;;;;;5068243;28;20453;-73
2021/06/18 11:51:51;;;;;;;1.93;1.70;;;34.80;57.60;;;;;;5069054;28;20457;-71
2021/06/18 11:54:29;;;;;;;3.60;2.07;;;34.80;58.60;;;;;;5067790;28;20684;-71
2021/06/18 11:57:02;;;;;;;1.97;1.73;;;34.80;55.70;;;;;;5069568;28;20547;-74
2021/06/18 11:59:37;;;;;;;2.00;1.83;;;35.00;58.00;;;;;;5067651;28;20453;-73
2021/06/18 12:02:17;;;;;;;3.50;1.90;;;35.00;56.40;;;;;;5069738;28;20468;-73
2021/06/18 12:04:45;;;;;;;3.40;2.17;;;34.90;57.80;;;;;;5067585;28;21028;-73
2021/06/18 12:07:12;;;;;;;2.27;1.80;;;34.90;57.40;;;;;;5069227;28;20539;-73
2021/06/18 12:09:43;;;;;;;2.70;2.20;;;35.10;58.60;;;;;;5067560;28;20866;-74
2021/06/18 12:12:12;;;;;;;3.70;2.30;;;35.10;55.10;;;;;;5069510;28;20457;-73
2021/06/18 12:14:43;;;;;;;3.00;2.07;;;35.20;54.90;;;;;;5066129;28;20510;-75
2021/06/18 12:17:10;;;;;;;2.40;1.97;;;35.30;55.10;;;;;;5069195;28;20461;-73
2021/06/18 12:19:43;;;;;;;2.23;1.93;;;35.50;55.60;;;;;;5067526;28;20480;-74
2021/06/18 12:22:12;;;;;;;3.53;2.17;;;35.50;55.60;;;;;;5073027;28;20457;-73
2021/06/18 12:24:40;;;;;;;3.00;1.97;;;35.50;57.40;;;;;;5070989;28;20452;-70
2021/06/18 12:27:09;;;;;;;3.87;2.23;;;35.40;59.90;;;;;;5072610;28;20460;-74
2021/06/18 12:29:40;;;;;;;2.57;1.90;;;35.30;56.80;;;;;;5071000;28;20464;-74
2021/06/18 12:32:09;;;;;;;2.07;1.87;;;35.50;58.10;;;;;;5072641;28;20935;-73
2021/06/18 12:34:37;;;;;;;3.20;2.20;;;35.60;54.50;;;;;;5070903;28;20461;-74
2021/06/18 12:37:07;;;;;;;1.93;1.80;;;35.60;56.10;;;;;;5072724;28;20469;-73
2021/06/18 12:39:51;;;;;;;2.83;1.97;;;35.60;58.30;;;;;;5070749;28;20467;-72
2021/06/18 12:42:20;;;;;;;2.83;2.10;;;35.60;56.10;;;;;;5072716;28;20962;-72
2021/06/18 12:45:02;;;;;;;2.33;2.03;;;35.60;58.20;;;;;;5070610;28;20507;-72
2021/06/18 12:47:29;;;;;;;3.17;2.30;;;35.50;56.10;;;;;;5072521;28;20484;-71
2021/06/18 12:49:56;;;;;;;2.37;1.70;;;35.60;57.10;;;;;;5070691;28;20477;-72
2021/06/18 12:52:23;;;;;;;4.00;2.40;;;35.70;55.30;;;;;;5072749;28;20444;-74
2021/06/18 12:54:50;;;;;;;2.30;1.90;;;35.80;54.80;;;;;;5070691;28;20527;-74
2021/06/18 12:57:24;;;;;;;2.63;2.00;;;35.80;53.70;;;;;;5072968;28;20493;-75
2021/06/18 13:00:08;;;;;;;2.87;1.87;;;35.60;56.40;;;;;;5070438;28;20506;-74
2021/06/18 13:02:36;;;;;;;1.80;1.57;;;35.80;55.80;;;;;;5073005;28;20484;-74